Time;durP1;ratioP1;P1;durP2;ratioP2;P2;SDS_P1;SDS_P2;PMS_P1;PMS_P2;Temp;Humidity;BMP_temperature;BMP_pressure;BME280_temperature;BME280_humidity;BME280_pressure;Samples;Min_cycle;Max_cycle;Signal;HPM_P1;HPM_P2
2022/04/07 00:00:13;;;;;;;2.40;1.27;;;;;;;;;;5041690;28;20447;-89
2022/04/07 00:02:39;;;;;;;3.97;1.20;;;;;;;;;;5039879;28;20445;-87
2022/04/07 00:05:05;;;;;;;5.73;1.10;;;;;;;;;;5026039;28;20325;-87
2022/04/07 00:07:31;;;;;;;2.65;1.40;;;;;;;;;;5025557;28;20417;-87
2022/04/07 00:09:57;;;;;;;2.20;1.20;;;;;;;;;;5040416;28;20178;-86
2022/04/07 00:12:23;;;;;;;5.90;1.50;;;;;;;;;;5036476;28;20201;-86
2022/04/07 00:14:49;;;;;;;2.30;1.40;;;;;;;;;;5037801;28;20445;-85
2022/04/07 00:17:15;;;;;;;2.60;1.97;;;;;;;;;;5029559;28;20503;-87
2022/04/07 00:19:41;;;;;;;1.70;1.05;;;;;;;;;;5024015;28;20449;-85
2022/04/07 00:22:07;;;;;;;6.82;1.98;;;;;;;;;;5041318;28;20174;-86
2022/04/07 00:24:33;;;;;;;4.72;1.45;;;;;;;;;;5041989;28;20296;-87
2022/04/07 00:26:59;;;;;;;2.17;1.00;;;;;;;;;;5036921;28;20264;-87
2022/04/07 00:29:25;;;;;;;3.30;1.23;;;;;;;;;;5040872;28;20197;-87
2022/04/07 00:31:57;;;;;;;2.65;1.50;;;;;;;;;;5025353;28;20439;-86
2022/04/07 00:34:23;;;;;;;2.85;1.13;;;;;;;;;;5039776;28;20237;-89
2022/04/07 00:36:49;;;;;;;5.90;1.50;;;;;;;;;;5041809;28;20231;-86
2022/04/07 00:39:16;;;;;;;3.63;1.10;;;;;;;;;;5037563;28;20192;-87
2022/04/07 00:41:42;;;;;;;2.70;1.40;;;;;;;;;;5036845;28;20276;-86
2022/04/07 00:44:08;;;;;;;7.03;1.52;;;;;;;;;;5039828;28;20206;-86
2022/04/07 00:46:35;;;;;;;4.80;1.40;;;;;;;;;;5037987;28;20220;-85
2022/04/07 00:49:01;;;;;;;3.83;1.30;;;;;;;;;;5052700;28;20583;-84
2022/04/07 00:51:27;;;;;;;3.80;1.10;;;;;;;;;;5034281;28;20183;-86
2022/04/07 00:53:53;;;;;;;4.40;1.95;;;;;;;;;;5029566;28;20182;-86
2022/04/07 00:56:19;;;;;;;3.30;1.13;;;;;;;;;;5027542;28;20190;-85
2022/04/07 00:58:47;;;;;;;5.13;1.10;;;;;;;;;;5023818;28;20202;-85
2022/04/07 01:01:13;;;;;;;4.25;1.25;;;;;;;;;;5038988;28;20174;-87
2022/04/07 01:03:39;;;;;;;4.78;1.65;;;;;;;;;;5042192;28;20282;-85
2022/04/07 01:06:05;;;;;;;3.45;1.45;;;;;;;;;;5046030;28;20684;-87
2022/04/07 01:08:31;;;;;;;1.95;1.00;;;;;;;;;;5038148;28;20213;-86
2022/04/07 01:10:57;;;;;;;5.50;1.17;;;;;;;;;;5054038;28;20190;-89
2022/04/07 01:13:23;;;;;;;5.15;2.00;;;;;;;;;;5037829;28;20600;-85
2022/04/07 01:15:49;;;;;;;3.50;1.45;;;;;;;;;;5041755;28;20173;-87
2022/04/07 01:18:15;;;;;;;2.67;1.60;;;;;;;;;;5032629;28;20174;-86
2022/04/07 01:20:41;;;;;;;6.28;1.40;;;;;;;;;;5025554;28;20281;-86
2022/04/07 01:23:07;;;;;;;2.13;1.67;;;;;;;;;;5029521;28;20178;-86
2022/04/07 01:25:34;;;;;;;3.92;1.45;;;;;;;;;;5040315;28;20205;-86
2022/04/07 01:28:00;;;;;;;5.50;1.52;;;;;;;;;;5042821;28;20174;-86
2022/04/07 01:30:26;;;;;;;4.13;1.45;;;;;;;;;;5044205;28;20204;-86
2022/04/07 01:33:00;;;;;;;7.78;1.30;;;;;;;;;;5042356;28;20174;-86
2022/04/07 01:35:26;;;;;;;5.72;1.75;;;;;;;;;;5040276;28;20183;-87
2022/04/07 01:37:53;;;;;;;2.90;1.20;;;;;;;;;;5043091;28;20244;-87
2022/04/07 01:40:21;;;;;;;2.75;1.30;;;;;;;;;;5045996;28;20192;-85
2022/04/07 01:42:49;;;;;;;4.20;1.92;;;;;;;;;;5031382;28;20717;-86
2022/04/07 01:45:15;;;;;;;2.58;1.20;;;;;;;;;;5044529;28;20229;-85
2022/04/07 01:47:43;;;;;;;2.63;1.30;;;;;;;;;;5039858;28;20197;-86
2022/04/07 01:50:09;;;;;;;6.65;2.47;;;;;;;;;;5028275;28;20186;-86
2022/04/07 01:52:36;;;;;;;4.75;1.40;;;;;;;;;;5041228;28;20190;-87
2022/04/07 01:55:02;;;;;;;5.45;1.65;;;;;;;;;;5031670;28;20181;-86
2022/04/07 01:57:29;;;;;;;5.40;1.40;;;;;;;;;;5044578;28;20623;-86
2022/04/07 01:59:55;;;;;;;3.85;1.25;;;;;;;;;;5039308;28;20198;-87
2022/04/07 02:02:21;;;;;;;4.13;1.50;;;;;;;;;;5030582;28;20187;-87
2022/04/07 02:04:55;;;;;;;5.05;1.35;;;;;;;;;;5057720;28;20202;-87
2022/04/07 02:07:21;;;;;;;3.42;1.50;;;;;;;;;;5054350;28;20656;-84
2022/04/07 02:09:47;;;;;;;3.42;1.38;;;;;;;;;;5036540;28;20186;-88
2022/04/07 02:12:13;;;;;;;4.88;1.45;;;;;;;;;;5032278;28;20174;-86
2022/04/07 02:14:39;;;;;;;2.50;1.27;;;;;;;;;;5031891;28;20202;-86
2022/04/07 02:17:06;;;;;;;3.55;1.30;;;;;;;;;;5026924;28;20464;-86
2022/04/07 02:19:32;;;;;;;3.38;1.40;;;;;;;;;;5040928;28;20256;-86
2022/04/07 02:21:58;;;;;;;5.70;1.77;;;;;;;;;;5038471;28;20165;-86
2022/04/07 02:24:25;;;;;;;2.20;0.90;;;;;;;;;;5034674;28;20210;-87
2022/04/07 02:26:51;;;;;;;10.65;2.38;;;;;;;;;;5030513;28;20182;-86
2022/04/07 02:29:17;;;;;;;4.20;2.00;;;;;;;;;;5031535;28;20178;-88
2022/04/07 02:31:43;;;;;;;1.05;1.00;;;;;;;;;;5035731;28;20213;-87
2022/04/07 02:34:09;;;;;;;2.17;1.77;;;;;;;;;;5038495;28;20699;-85
2022/04/07 02:36:35;;;;;;;4.72;1.92;;;;;;;;;;5037503;28;20194;-87
2022/04/07 02:39:01;;;;;;;3.83;1.48;;;;;;;;;;5044786;28;20181;-86
2022/04/07 02:41:28;;;;;;;2.38;1.60;;;;;;;;;;5042032;28;20285;-84
2022/04/07 02:43:55;;;;;;;3.42;1.50;;;;;;;;;;5041369;28;20225;-85
2022/04/07 02:46:21;;;;;;;3.40;1.48;;;;;;;;;;5041073;28;20178;-88
2022/04/07 02:48:47;;;;;;;5.00;1.58;;;;;;;;;;5041184;28;20174;-85
2022/04/07 02:51:13;;;;;;;5.20;2.83;;;;;;;;;;5037599;28;20636;-88
2022/04/07 02:53:39;;;;;;;4.40;2.27;;;;;;;;;;5038331;28;20938;-86
2022/04/07 02:56:05;;;;;;;3.92;1.77;;;;;;;;;;5039735;28;20441;-88
2022/04/07 02:58:31;;;;;;;5.80;2.85;;;;;;;;;;5041287;28;20181;-83
2022/04/07 03:00:58;;;;;;;4.40;1.53;;;;;;;;;;5037810;28;20186;-87
2022/04/07 03:03:24;;;;;;;8.27;2.50;;;;;;;;;;5032020;28;20546;-87
2022/04/07 03:05:50;;;;;;;3.78;1.42;;;;;;;;;;5031578;28;20646;-88
2022/04/07 03:08:16;;;;;;;3.95;1.80;;;;;;;;;;5032251;28;20193;-85
2022/04/07 03:10:42;;;;;;;3.95;1.83;;;;;;;;;;5042027;28;20190;-88
2022/04/07 03:13:08;;;;;;;4.45;1.88;;;;;;;;;;5026515;28;20180;-87
2022/04/07 03:15:34;;;;;;;4.35;2.50;;;;;;;;;;5042456;28;20208;-88
2022/04/07 03:18:00;;;;;;;5.07;1.77;;;;;;;;;;5036204;28;20186;-85
2022/04/07 03:20:26;;;;;;;2.37;1.50;;;;;;;;;;5027414;28;20193;-86
2022/04/07 03:22:52;;;;;;;2.90;1.10;;;;;;;;;;5040931;28;20930;-89
2022/04/07 03:25:18;;;;;;;2.20;1.50;;;;;;;;;;5027928;28;20460;-88
2022/04/07 03:27:44;;;;;;;2.22;1.67;;;;;;;;;;5062721;28;20425;-86
2022/04/07 03:30:11;;;;;;;5.78;1.67;;;;;;;;;;5032888;28;20195;-86
2022/04/07 03:32:37;;;;;;;9.15;1.63;;;;;;;;;;5037658;28;20676;-87
2022/04/07 03:35:03;;;;;;;2.40;1.43;;;;;;;;;;5027222;28;20209;-87
2022/04/07 03:37:30;;;;;;;3.47;2.05;;;;;;;;;;5026717;28;20435;-89
2022/04/07 03:39:56;;;;;;;8.27;2.55;;;;;;;;;;5043875;28;20190;-87
2022/04/07 03:42:22;;;;;;;5.68;1.48;;;;;;;;;;5033422;28;20236;-89
2022/04/07 03:44:48;;;;;;;7.35;2.03;;;;;;;;;;5029693;28;20212;-88
2022/04/07 03:47:14;;;;;;;4.10;1.40;;;;;;;;;;5040656;28;20205;-88
2022/04/07 03:49:40;;;;;;;6.38;1.85;;;;;;;;;;5024142;28;20514;-89
2022/04/07 03:52:06;;;;;;;4.53;1.83;;;;;;;;;;5038801;28;20170;-89
2022/04/07 03:54:32;;;;;;;3.03;2.20;;;;;;;;;;5037211;28;20305;-88
2022/04/07 03:56:58;;;;;;;7.00;2.17;;;;;;;;;;5038026;28;20233;-89
2022/04/07 03:59:25;;;;;;;6.18;2.17;;;;;;;;;;5024893;28;20217;-88
2022/04/07 04:01:50;;;;;;;8.63;2.22;;;;;;;;;;5039868;28;20649;-86
2022/04/07 04:04:20;;;;;;;3.80;3.27;;;;;;;;;;5027020;28;20202;-87
2022/04/07 04:06:46;;;;;;;4.72;1.98;;;;;;;;;;5026772;28;20536;-88
2022/04/07 04:09:12;;;;;;;6.90;1.95;;;;;;;;;;5038909;28;20183;-86
2022/04/07 04:11:38;;;;;;;5.60;1.97;;;;;;;;;;5037385;28;20191;-86
2022/04/07 04:14:04;;;;;;;3.75;1.85;;;;;;;;;;5039854;28;20472;-89
2022/04/07 04:16:31;;;;;;;6.55;2.03;;;;;;;;;;5025601;28;20192;-90
2022/04/07 04:18:57;;;;;;;4.70;1.73;;;;;;;;;;5042553;28;20185;-88
2022/04/07 04:21:23;;;;;;;4.05;1.60;;;;;;;;;;5039527;28;20328;-89
2022/04/07 04:23:49;;;;;;;1.55;1.30;;;;;;;;;;5048885;28;20216;-85
2022/04/07 04:26:15;;;;;;;3.60;1.23;;;;;;;;;;5041571;28;20181;-87
2022/04/07 04:28:41;;;;;;;2.60;1.75;;;;;;;;;;5024369;28;20202;-87
2022/04/07 04:31:07;;;;;;;4.70;1.77;;;;;;;;;;5038313;28;20185;-87
2022/04/07 04:33:33;;;;;;;5.95;1.80;;;;;;;;;;5027207;28;21124;-88
2022/04/07 04:35:59;;;;;;;2.70;1.60;;;;;;;;;;5032147;28;20265;-87
2022/04/07 04:38:25;;;;;;;3.45;1.58;;;;;;;;;;5051803;28;20182;-86
2022/04/07 04:40:51;;;;;;;7.55;1.77;;;;;;;;;;5025237;28;20220;-86
2022/04/07 04:43:17;;;;;;;4.67;1.80;;;;;;;;;;5038360;28;20249;-87
2022/04/07 04:45:43;;;;;;;4.07;1.80;;;;;;;;;;5038988;28;20440;-86
2022/04/07 04:48:09;;;;;;;3.10;1.85;;;;;;;;;;5036582;28;20790;-86
2022/04/07 04:50:35;;;;;;;3.67;1.88;;;;;;;;;;5037250;28;20245;-86
2022/04/07 04:53:01;;;;;;;3.07;1.80;;;;;;;;;;5049769;28;20241;-87
2022/04/07 04:55:27;;;;;;;1.80;1.70;;;;;;;;;;5040473;28;20475;-87
2022/04/07 04:57:53;;;;;;;5.32;1.65;;;;;;;;;;5031451;28;20231;-90
2022/04/07 05:00:19;;;;;;;2.80;1.53;;;;;;;;;;5037139;28;20276;-88
2022/04/07 05:02:45;;;;;;;7.03;1.73;;;;;;;;;;5040547;28;20508;-86
2022/04/07 05:05:12;;;;;;;2.13;1.40;;;;;;;;;;5044763;28;20467;-89
2022/04/07 05:07:38;;;;;;;8.77;1.80;;;;;;;;;;5045016;28;20196;-86
2022/04/07 05:10:05;;;;;;;5.18;1.70;;;;;;;;;;5033687;28;20178;-86
2022/04/07 05:12:31;;;;;;;3.78;1.75;;;;;;;;;;5045378;28;20182;-85
2022/04/07 05:14:57;;;;;;;2.83;1.52;;;;;;;;;;5042490;28;20190;-85
2022/04/07 05:17:23;;;;;;;6.13;1.98;;;;;;;;;;5045705;28;20225;-85
2022/04/07 05:19:49;;;;;;;5.90;1.38;;;;;;;;;;5043831;28;20191;-86
2022/04/07 05:22:16;;;;;;;6.47;1.50;;;;;;;;;;5059877;28;20436;-86
2022/04/07 05:24:42;;;;;;;7.50;2.08;;;;;;;;;;5045135;28;20240;-85
2022/04/07 05:27:07;;;;;;;3.90;1.87;;;;;;;;;;5038345;28;20175;-86
2022/04/07 05:29:33;;;;;;;5.53;1.97;;;;;;;;;;5032363;28;20456;-85
2022/04/07 05:31:59;;;;;;;5.13;2.00;;;;;;;;;;5046469;28;20449;-85
2022/04/07 05:34:25;;;;;;;4.90;2.08;;;;;;;;;;5055611;28;20205;-86
2022/04/07 05:36:51;;;;;;;5.45;1.20;;;;;;;;;;5033699;28;20197;-85
2022/04/07 05:39:17;;;;;;;3.45;1.05;;;;;;;;;;5039571;28;20206;-87
2022/04/07 05:41:44;;;;;;;5.77;2.00;;;;;;;;;;5039550;28;20224;-87
2022/04/07 05:44:10;;;;;;;6.97;1.40;;;;;;;;;;5043522;28;20557;-86
2022/04/07 05:46:36;;;;;;;4.93;1.60;;;;;;;;;;5050534;28;20226;-87
2022/04/07 05:49:02;;;;;;;4.20;1.23;;;;;;;;;;5050166;28;20617;-85
2022/04/07 05:51:28;;;;;;;5.55;1.70;;;;;;;;;;5035681;28;20472;-85
2022/04/07 05:53:54;;;;;;;3.25;1.45;;;;;;;;;;5044394;28;20189;-86
2022/04/07 05:56:20;;;;;;;6.57;1.98;;;;;;;;;;5046890;28;20248;-86
2022/04/07 05:58:46;;;;;;;3.10;1.30;;;;;;;;;;5058323;28;24501;-84
2022/04/07 06:01:12;;;;;;;2.40;1.23;;;;;;;;;;5045424;28;20223;-88
2022/04/07 06:03:40;;;;;;;5.15;1.30;;;;;;;;;;5046735;28;20487;-86
2022/04/07 06:06:06;;;;;;;2.25;1.33;;;;;;;;;;5044037;28;20176;-85
2022/04/07 06:08:32;;;;;;;3.80;2.40;;;;;;;;;;5039846;28;20250;-85
2022/04/07 06:10:58;;;;;;;6.27;2.37;;;;;;;;;;5049059;28;21027;-86
2022/04/07 06:13:24;;;;;;;3.65;1.85;;;;;;;;;;5030944;28;20441;-85
2022/04/07 06:15:50;;;;;;;3.72;1.30;;;;;;;;;;5032623;28;20179;-90
2022/04/07 06:18:16;;;;;;;2.75;1.33;;;;;;;;;;5065955;28;20220;-87
2022/04/07 06:20:45;;;;;;;1.92;1.70;;;;;;;;;;5040727;28;20285;-84
2022/04/07 06:23:11;;;;;;;2.45;1.05;;;;;;;;;;5029043;28;20193;-84
2022/04/07 06:25:37;;;;;;;5.35;2.85;;;;;;;;;;5044679;28;20204;-83
2022/04/07 06:28:04;;;;;;;6.23;1.83;;;;;;;;;;5030614;28;20178;-84
2022/04/07 06:30:30;;;;;;;4.20;1.70;;;;;;;;;;5038175;28;20451;-82
2022/04/07 06:32:56;;;;;;;3.10;2.05;;;;;;;;;;5043226;28;20197;-82
2022/04/07 06:35:22;;;;;;;4.07;1.35;;;;;;;;;;5069331;28;20174;-80
2022/04/07 06:37:52;;;;;;;7.88;2.40;;;;;;;;;;5046788;28;20291;-81
2022/04/07 06:40:19;;;;;;;4.75;1.30;;;;;;;;;;5038898;28;20308;-82
2022/04/07 06:42:46;;;;;;;5.57;1.45;;;;;;;;;;5040222;28;20615;-81
2022/04/07 06:45:12;;;;;;;4.22;1.42;;;;;;;;;;5064887;28;20205;-82
2022/04/07 06:47:41;;;;;;;4.03;1.43;;;;;;;;;;5038813;28;20193;-83
2022/04/07 06:50:08;;;;;;;7.22;1.48;;;;;;;;;;5044328;28;20436;-82
2022/04/07 06:52:34;;;;;;;1.40;1.30;;;;;;;;;;5041579;28;20178;-82
2022/04/07 06:55:00;;;;;;;2.03;1.20;;;;;;;;;;5050704;28;20178;-87
2022/04/07 06:57:26;;;;;;;3.47;1.60;;;;;;;;;;5036164;28;20226;-86
2022/04/07 06:59:52;;;;;;;4.18;1.23;;;;;;;;;;5041860;28;20186;-88
2022/04/07 07:02:18;;;;;;;3.95;1.00;;;;;;;;;;5036517;28;20195;-85
2022/04/07 07:04:44;;;;;;;1.85;1.13;;;;;;;;;;5030613;28;20236;-85
2022/04/07 07:07:11;;;;;;;3.53;0.90;;;;;;;;;;5030024;28;20179;-85
2022/04/07 07:09:37;;;;;;;7.13;1.30;;;;;;;;;;5031995;28;20436;-85
2022/04/07 07:12:03;;;;;;;2.97;1.30;;;;;;;;;;5037799;28;20201;-85
2022/04/07 07:14:29;;;;;;;1.52;0.80;;;;;;;;;;5038813;28;20302;-87
2022/04/07 07:16:55;;;;;;;1.77;1.63;;;;;;;;;;5038062;28;20201;-86
2022/04/07 07:19:26;;;;;;;2.53;0.80;;;;;;;;;;5045641;28;20201;-86
2022/04/07 07:21:53;;;;;;;0.80;0.80;;;;;;;;;;5047015;28;20461;-87
2022/04/07 07:24:19;;;;;;;1.60;0.90;;;;;;;;;;5046991;28;20209;-85
2022/04/07 07:26:46;;;;;;;0.77;0.77;;;;;;;;;;5041845;28;20193;-84
2022/04/07 07:29:12;;;;;;;2.88;1.05;;;;;;;;;;5039159;28;20280;-83
2022/04/07 07:31:38;;;;;;;1.95;0.70;;;;;;;;;;5042734;28;20170;-83
2022/04/07 07:34:04;;;;;;;0.88;0.80;;;;;;;;;;5040789;28;20232;-86
2022/04/07 07:36:31;;;;;;;1.40;0.82;;;;;;;;;;5042454;28;20201;-85
2022/04/07 07:38:57;;;;;;;3.53;0.95;;;;;;;;;;5041670;28;20281;-86
2022/04/07 07:41:23;;;;;;;1.50;1.17;;;;;;;;;;5040560;28;20196;-89
2022/04/07 07:43:49;;;;;;;1.67;0.68;;;;;;;;;;5053218;28;20218;-87
2022/04/07 07:46:16;;;;;;;2.63;1.00;;;;;;;;;;5037596;28;20199;-85
2022/04/07 07:48:42;;;;;;;0.80;0.68;;;;;;;;;;5046703;28;20204;-86
2022/04/07 07:51:08;;;;;;;1.45;0.75;;;;;;;;;;5044912;28;20542;-85
2022/04/07 07:53:34;;;;;;;1.90;0.80;;;;;;;;;;5030732;28;20304;-87
2022/04/07 07:56:00;;;;;;;1.45;1.00;;;;;;;;;;5052805;28;20189;-85
2022/04/07 07:58:26;;;;;;;2.53;1.23;;;;;;;;;;5049312;28;20180;-82
2022/04/07 08:00:53;;;;;;;0.90;0.70;;;;;;;;;;5034168;28;21128;-85
2022/04/07 08:03:19;;;;;;;2.83;0.98;;;;;;;;;;5036908;28;20186;-84
2022/04/07 08:05:45;;;;;;;1.15;0.70;;;;;;;;;;5037920;28;20217;-85
2022/04/07 08:08:12;;;;;;;1.60;1.00;;;;;;;;;;5051695;28;20187;-85
2022/04/07 08:10:38;;;;;;;0.93;0.65;;;;;;;;;;5052231;28;20268;-86
2022/04/07 08:13:04;;;;;;;0.70;0.70;;;;;;;;;;5029055;28;20526;-84
2022/04/07 08:15:31;;;;;;;1.63;0.80;;;;;;;;;;5038147;28;20186;-85
2022/04/07 08:17:57;;;;;;;0.80;0.70;;;;;;;;;;5036619;28;20445;-86
2022/04/07 08:20:23;;;;;;;0.77;0.70;;;;;;;;;;5028604;28;20193;-84
2022/04/07 08:22:49;;;;;;;0.57;0.57;;;;;;;;;;5043245;28;20190;-81
2022/04/07 08:25:15;;;;;;;0.77;0.70;;;;;;;;;;5032619;28;20211;-84
2022/04/07 08:27:41;;;;;;;0.80;0.50;;;;;;;;;;5036682;28;20243;-87
2022/04/07 08:30:08;;;;;;;0.70;0.57;;;;;;;;;;5034971;28;20433;-84
2022/04/07 08:32:34;;;;;;;3.05;1.13;;;;;;;;;;5034312;28;20194;-87
2022/04/07 08:35:00;;;;;;;0.90;0.75;;;;;;;;;;5051847;28;20192;-84
2022/04/07 08:37:26;;;;;;;1.50;0.70;;;;;;;;;;5048177;28;20198;-84
2022/04/07 08:39:52;;;;;;;2.97;0.60;;;;;;;;;;5041195;28;20177;-84
2022/04/07 08:42:23;;;;;;;0.60;0.60;;;;;;;;;;5037548;28;20475;-83
2022/04/07 08:44:49;;;;;;;1.15;0.82;;;;;;;;;;5039832;28;20257;-82
2022/04/07 08:47:18;;;;;;;0.68;0.60;;;;;;;;;;5034979;28;20192;-85
2022/04/07 08:49:44;;;;;;;0.63;0.52;;;;;;;;;;5047140;28;20243;-83
2022/04/07 08:52:10;;;;;;;0.85;0.65;;;;;;;;;;5043013;28;20196;-84
2022/04/07 08:54:37;;;;;;;0.50;0.50;;;;;;;;;;5044090;28;20200;-87
2022/04/07 08:57:03;;;;;;;0.60;0.60;;;;;;;;;;5036912;28;20281;-86
2022/04/07 08:59:30;;;;;;;0.70;0.60;;;;;;;;;;5032900;28;20192;-86
2022/04/07 09:02:03;;;;;;;0.63;0.60;;;;;;;;;;5040191;28;20223;-87
2022/04/07 09:04:37;;;;;;;1.52;0.50;;;;;;;;;;5037274;28;20224;-85
2022/04/07 09:07:03;;;;;;;0.60;0.60;;;;;;;;;;5040913;28;20171;-89
2022/04/07 09:09:31;;;;;;;0.90;0.60;;;;;;;;;;5035221;28;20212;-85
2022/04/07 09:11:57;;;;;;;1.00;0.70;;;;;;;;;;5032240;28;20201;-85
2022/04/07 09:14:23;;;;;;;0.50;0.50;;;;;;;;;;5032216;28;20190;-86
2022/04/07 09:16:56;;;;;;;1.08;0.60;;;;;;;;;;5040489;28;20434;-85
2022/04/07 09:19:22;;;;;;;1.17;0.60;;;;;;;;;;5054877;28;20178;-85
2022/04/07 09:21:51;;;;;;;0.50;0.50;;;;;;;;;;5035967;28;20710;-89
2022/04/07 09:24:26;;;;;;;1.00;0.52;;;;;;;;;;5037646;28;20247;-86
2022/04/07 09:26:52;;;;;;;0.70;0.50;;;;;;;;;;5049916;28;20188;-88
2022/04/07 09:29:18;;;;;;;0.70;0.60;;;;;;;;;;5049379;28;20194;-87
2022/04/07 09:31:51;;;;;;;1.85;0.60;;;;;;;;;;5042343;28;20447;-88
2022/04/07 09:34:29;;;;;;;0.70;0.60;;;;;;;;;;5041216;28;20559;-84
2022/04/07 09:37:05;;;;;;;0.75;0.50;;;;;;;;;;5031823;28;20190;-84
2022/04/07 09:39:33;;;;;;;2.55;0.68;;;;;;;;;;5038038;28;20194;-87
2022/04/07 09:42:17;;;;;;;0.68;0.60;;;;;;;;;;5038129;28;20233;-87
2022/04/07 09:44:43;;;;;;;1.15;0.60;;;;;;;;;;5040565;28;20210;-86
2022/04/07 09:47:13;;;;;;;0.50;0.50;;;;;;;;;;5032850;28;20175;-85
2022/04/07 09:49:40;;;;;;;0.93;0.68;;;;;;;;;;5054099;28;20577;-86
2022/04/07 09:52:08;;;;;;;0.90;0.63;;;;;;;;;;5027331;28;20182;-85
2022/04/07 09:54:36;;;;;;;1.70;0.73;;;;;;;;;;5043149;28;20194;-86
2022/04/07 09:57:03;;;;;;;1.17;0.70;;;;;;;;;;5040285;28;20193;-85
2022/04/07 09:59:29;;;;;;;1.10;0.75;;;;;;;;;;5052732;28;20217;-85
2022/04/07 10:01:56;;;;;;;1.63;0.77;;;;;;;;;;5051268;28;20200;-85
2022/04/07 10:04:22;;;;;;;2.30;1.10;;;;;;;;;;5040453;28;20204;-83
2022/04/07 10:06:48;;;;;;;1.38;0.75;;;;;;;;;;5044650;28;20176;-82
2022/04/07 10:09:15;;;;;;;1.95;0.70;;;;;;;;;;5044539;28;20185;-84
2022/04/07 10:11:42;;;;;;;1.23;0.60;;;;;;;;;;5043635;28;20186;-84
2022/04/07 10:14:09;;;;;;;0.60;0.60;;;;;;;;;;5055266;28;20284;-85
2022/04/07 10:16:35;;;;;;;1.38;0.70;;;;;;;;;;5028179;28;20182;-86
2022/04/07 10:19:12;;;;;;;1.73;0.80;;;;;;;;;;5044921;28;20336;-82
2022/04/07 10:21:39;;;;;;;1.67;0.90;;;;;;;;;;5038790;28;20284;-83
2022/04/07 10:24:15;;;;;;;0.82;0.80;;;;;;;;;;5037753;28;20721;-84
2022/04/07 10:26:46;;;;;;;1.05;0.60;;;;;;;;;;5032393;28;20183;-84
2022/04/07 10:29:24;;;;;;;0.70;0.70;;;;;;;;;;5037306;28;20203;-85
2022/04/07 10:32:19;;;;;;;0.50;0.50;;;;;;;;;;5035666;28;20184;-84
2022/04/07 10:34:55;;;;;;;0.55;0.40;;;;;;;;;;5041232;28;20199;-86
2022/04/07 10:37:47;;;;;;;2.00;0.50;;;;;;;;;;5041096;28;20179;-82
2022/04/07 10:40:35;;;;;;;0.80;0.60;;;;;;;;;;5055044;28;20247;-83
2022/04/07 10:43:20;;;;;;;0.50;0.50;;;;;;;;;;5034942;28;20229;-82
2022/04/07 10:45:50;;;;;;;1.90;0.57;;;;;;;;;;5039336;28;20203;-86
2022/04/07 10:48:17;;;;;;;0.65;0.60;;;;;;;;;;5035356;28;20211;-84
2022/04/07 10:51:02;;;;;;;0.57;0.50;;;;;;;;;;5036555;28;20182;-85
2022/04/07 10:53:30;;;;;;;0.57;0.45;;;;;;;;;;5031746;28;20544;-82
2022/04/07 10:56:05;;;;;;;0.70;0.70;;;;;;;;;;5050724;28;20186;-82
2022/04/07 10:58:41;;;;;;;2.00;0.80;;;;;;;;;;5032574;28;20176;-81
2022/04/07 11:01:07;;;;;;;0.98;0.60;;;;;;;;;;5038261;28;20419;-84
2022/04/07 11:03:35;;;;;;;0.88;0.60;;;;;;;;;;5029361;28;20568;-82
2022/04/07 11:06:04;;;;;;;1.70;0.60;;;;;;;;;;5031529;28;20175;-84
2022/04/07 11:08:30;;;;;;;0.73;0.50;;;;;;;;;;5033755;28;20179;-84
2022/04/07 11:10:56;;;;;;;0.60;0.50;;;;;;;;;;5051343;28;20245;-81
2022/04/07 11:13:42;;;;;;;2.50;0.80;;;;;;;;;;5034685;28;20563;-83
2022/04/07 11:16:16;;;;;;;1.27;0.60;;;;;;;;;;5056599;28;20236;-84
2022/04/07 11:18:55;;;;;;;1.63;0.57;;;;;;;;;;5035828;28;20189;-87
2022/04/07 11:21:21;;;;;;;1.83;0.70;;;;;;;;;;5033579;28;20201;-83
2022/04/07 11:23:52;;;;;;;0.70;0.60;;;;;;;;;;5038626;28;20184;-85
2022/04/07 11:26:28;;;;;;;3.00;0.77;;;;;;;;;;5042390;28;20205;-84
2022/04/07 11:29:03;;;;;;;1.30;0.60;;;;;;;;;;5040386;28;20188;-83
2022/04/07 11:31:50;;;;;;;1.35;0.80;;;;;;;;;;5047673;28;20187;-85
2022/04/07 11:34:35;;;;;;;2.95;0.73;;;;;;;;;;5039459;28;20180;-83
2022/04/07 11:37:01;;;;;;;2.30;0.60;;;;;;;;;;5036988;28;20186;-83
2022/04/07 11:39:29;;;;;;;1.15;0.90;;;;;;;;;;5037395;28;20198;-84
2022/04/07 11:41:57;;;;;;;3.70;0.77;;;;;;;;;;5032182;28;20469;-82
2022/04/07 11:44:24;;;;;;;5.38;1.00;;;;;;;;;;5039682;28;20722;-84
2022/04/07 11:46:50;;;;;;;4.35;1.45;;;;;;;;;;5022706;28;20185;-82
2022/04/07 11:49:17;;;;;;;3.70;1.20;;;;;;;;;;5038244;28;20244;-82
2022/04/07 11:51:45;;;;;;;2.05;0.70;;;;;;;;;;5040165;28;20195;-83
2022/04/07 11:54:15;;;;;;;2.25;1.10;;;;;;;;;;5037385;28;20190;-83
2022/04/07 11:56:41;;;;;;;3.75;0.90;;;;;;;;;;5035624;28;20227;-83
2022/04/07 11:59:09;;;;;;;2.80;1.05;;;;;;;;;;5036518;28;20189;-84
2022/04/07 12:01:36;;;;;;;1.42;0.90;;;;;;;;;;5027026;28;20188;-83
2022/04/07 12:04:03;;;;;;;2.88;1.05;;;;;;;;;;5026330;28;20274;-84
2022/04/07 12:06:30;;;;;;;3.80;1.05;;;;;;;;;;5028974;28;20197;-89
2022/04/07 12:08:57;;;;;;;3.88;1.23;;;;;;;;;;5038780;28;20320;-84
2022/04/07 12:11:27;;;;;;;2.40;1.27;;;;;;;;;;5037019;28;20201;-83
2022/04/07 12:13:54;;;;;;;2.90;1.42;;;;;;;;;;5024824;28;20192;-85
2022/04/07 12:16:24;;;;;;;1.45;0.82;;;;;;;;;;5038955;28;20216;-85
2022/04/07 12:18:57;;;;;;;2.38;1.15;;;;;;;;;;5029477;28;20261;-87
2022/04/07 12:21:23;;;;;;;4.63;1.40;;;;;;;;;;5031235;28;20190;-86
2022/04/07 12:23:52;;;;;;;6.50;1.55;;;;;;;;;;5026913;28;20262;-85
2022/04/07 12:26:18;;;;;;;4.10;1.15;;;;;;;;;;5042358;28;20204;-88
2022/04/07 12:28:44;;;;;;;3.08;1.17;;;;;;;;;;5038970;28;20190;-85
2022/04/07 12:31:14;;;;;;;3.08;1.20;;;;;;;;;;5039071;28;20184;-88
2022/04/07 12:33:41;;;;;;;4.68;1.30;;;;;;;;;;5036122;28;20190;-85
2022/04/07 12:36:08;;;;;;;2.88;1.33;;;;;;;;;;5034853;28;20537;-85
2022/04/07 12:38:34;;;;;;;2.95;1.30;;;;;;;;;;5036283;28;20178;-90
2022/04/07 12:41:14;;;;;;;2.25;1.33;;;;;;;;;;5039215;28;20207;-86
2022/04/07 12:43:44;;;;;;;3.97;1.33;;;;;;;;;;5054171;28;20221;-85
2022/04/07 12:46:10;;;;;;;3.88;1.27;;;;;;;;;;5052719;28;20230;-82
2022/04/07 12:48:36;;;;;;;2.33;1.10;;;;;;;;;;5033977;28;20193;-87
2022/04/07 12:51:34;;;;;;;4.00;1.40;;;;;;;;;;5030371;28;20589;-84
2022/04/07 12:54:06;;;;;;;1.88;1.20;;;;;;;;;;5008869;28;20441;-82
2022/04/07 12:56:33;;;;;;;4.05;1.75;;;;;;;;;;4989150;28;20206;-87
2022/04/07 12:59:03;;;;;;;5.22;1.55;;;;;;;;;;4995565;28;20195;-84
2022/04/07 13:01:30;;;;;;;5.38;1.50;;;;;;;;;;5016227;28;20182;-85
2022/04/07 13:03:56;;;;;;;2.05;0.98;;;;;;;;;;4987230;28;20269;-83
2022/04/07 13:06:26;;;;;;;1.77;0.80;;;;;;;;;;5017431;28;20179;-84
2022/04/07 13:08:52;;;;;;;3.63;1.10;;;;;;;;;;5016290;28;20433;-85
2022/04/07 13:11:36;;;;;;;2.20;1.07;;;;;;;;;;5017924;28;20510;-88
2022/04/07 13:14:07;;;;;;;4.53;1.50;;;;;;;;;;5016749;28;21147;-85
2022/04/07 13:16:33;;;;;;;5.38;1.90;;;;;;;;;;5018868;28;20183;-84
2022/04/07 13:18:59;;;;;;;4.50;2.10;;;;;;;;;;5023666;28;20186;-85
2022/04/07 13:21:26;;;;;;;2.90;1.73;;;;;;;;;;5023358;28;20275;-85
2022/04/07 13:23:52;;;;;;;6.13;1.90;;;;;;;;;;5005665;28;20728;-83
2022/04/07 13:26:19;;;;;;;8.90;2.30;;;;;;;;;;5019838;28;20934;-84
2022/04/07 13:28:51;;;;;;;6.72;1.90;;;;;;;;;;5008627;28;20186;-86
2022/04/07 13:31:18;;;;;;;7.45;2.00;;;;;;;;;;5053814;28;20194;-83
2022/04/07 13:33:44;;;;;;;4.90;1.45;;;;;;;;;;5060496;28;20208;-84
2022/04/07 13:36:11;;;;;;;5.88;1.45;;;;;;;;;;5046966;28;20178;-84
2022/04/07 13:38:37;;;;;;;7.28;2.15;;;;;;;;;;5036828;28;20206;-86
2022/04/07 13:41:04;;;;;;;4.77;2.03;;;;;;;;;;5036480;28;20205;-86
2022/04/07 13:43:30;;;;;;;2.65;1.55;;;;;;;;;;5028754;28;20461;-84
2022/04/07 13:45:56;;;;;;;3.75;1.48;;;;;;;;;;5054179;28;20209;-86
2022/04/07 13:48:22;;;;;;;4.73;1.53;;;;;;;;;;5046865;28;20210;-83
2022/04/07 13:50:49;;;;;;;3.28;1.63;;;;;;;;;;5041707;28;20443;-84
2022/04/07 13:53:16;;;;;;;5.80;1.67;;;;;;;;;;5028139;28;21000;-82
2022/04/07 13:55:42;;;;;;;5.60;1.70;;;;;;;;;;5044767;28;21229;-84
2022/04/07 13:58:09;;;;;;;4.60;1.70;;;;;;;;;;5025596;28;20422;-84
2022/04/07 14:00:35;;;;;;;6.23;2.13;;;;;;;;;;5039513;28;20425;-84
2022/04/07 14:03:01;;;;;;;6.27;1.80;;;;;;;;;;5044882;28;20468;-83
2022/04/07 14:05:27;;;;;;;12.30;1.80;;;;;;;;;;5029651;28;20464;-84
2022/04/07 14:07:53;;;;;;;5.63;1.60;;;;;;;;;;5025514;28;20454;-84
2022/04/07 14:10:19;;;;;;;4.70;1.47;;;;;;;;;;5041183;28;20454;-86
2022/04/07 14:12:45;;;;;;;5.70;1.80;;;;;;;;;;5041735;28;20442;-83
2022/04/07 14:15:11;;;;;;;5.30;1.95;;;;;;;;;;5038890;28;20970;-83
2022/04/07 14:17:38;;;;;;;3.63;1.43;;;;;;;;;;5034233;28;20642;-86
2022/04/07 14:20:04;;;;;;;3.72;1.48;;;;;;;;;;5041996;28;20584;-81
2022/04/07 14:22:30;;;;;;;4.40;1.48;;;;;;;;;;5042765;28;20273;-84
2022/04/07 14:24:56;;;;;;;4.07;1.50;;;;;;;;;;5037943;28;20664;-84
2022/04/07 14:27:22;;;;;;;3.00;1.73;;;;;;;;;;5029720;28;20920;-84
2022/04/07 14:29:48;;;;;;;4.67;1.90;;;;;;;;;;5034059;28;20217;-84
2022/04/07 14:32:14;;;;;;;4.90;1.88;;;;;;;;;;5041708;28;20432;-85
2022/04/07 14:34:41;;;;;;;4.65;1.60;;;;;;;;;;5025777;28;20175;-84
2022/04/07 14:37:07;;;;;;;8.88;2.03;;;;;;;;;;5041054;28;20616;-82
2022/04/07 14:39:33;;;;;;;6.05;2.30;;;;;;;;;;5031553;28;20194;-84
2022/04/07 14:41:59;;;;;;;6.35;2.20;;;;;;;;;;5030882;28;20218;-84
2022/04/07 14:44:25;;;;;;;13.38;1.95;;;;;;;;;;5027113;28;20202;-83